sensor_id;sensor_type;location;lat;lon;timestamp;P1;durP1;ratioP1;P2;durP2;ratioP2
36817;SDS011;22761;51.542;16.450;2024-01-11T00:01:51;148.90;;;61.80;;
36817;SDS011;22761;51.542;16.450;2024-01-11T00:04:19;152.10;;;64.30;;
36817;SDS011;22761;51.542;16.450;2024-01-11T00:06:47;154.80;;;65.20;;
36817;SDS011;22761;51.542;16.450;2024-01-11T00:09:15;141.10;;;62.70;;
36817;SDS011;22761;51.542;16.450;2024-01-11T00:11:44;148.10;;;63.50;;
36817;SDS011;22761;51.542;16.450;2024-01-11T00:14:12;159.20;;;64.90;;
36817;SDS011;22761;51.542;16.450;2024-01-11T00:16:41;173.20;;;71.20;;
36817;SDS011;22761;51.542;16.450;2024-01-11T00:19:09;166.10;;;68.00;;
36817;SDS011;22761;51.542;16.450;2024-01-11T00:21:37;160.50;;;68.40;;
36817;SDS011;22761;51.542;16.450;2024-01-11T00:24:08;154.10;;;64.90;;
36817;SDS011;22761;51.542;16.450;2024-01-11T00:26:36;151.40;;;62.60;;
36817;SDS011;22761;51.542;16.450;2024-01-11T00:29:05;137.80;;;57.20;;
36817;SDS011;22761;51.542;16.450;2024-01-11T00:31:33;155.10;;;63.40;;
36817;SDS011;22761;51.542;16.450;2024-01-11T00:34:01;142.70;;;61.50;;
36817;SDS011;22761;51.542;16.450;2024-01-11T00:36:30;154.80;;;63.70;;
36817;SDS011;22761;51.542;16.450;2024-01-11T00:38:58;154.00;;;60.20;;
36817;SDS011;22761;51.542;16.450;2024-01-11T00:41:27;150.30;;;63.90;;
36817;SDS011;22761;51.542;16.450;2024-01-11T00:43:55;144.40;;;60.90;;
36817;SDS011;22761;51.542;16.450;2024-01-11T00:46:23;148.50;;;61.90;;
36817;SDS011;22761;51.542;16.450;2024-01-11T00:48:52;147.20;;;63.50;;
36817;SDS011;22761;51.542;16.450;2024-01-11T00:51:23;142.00;;;63.30;;
36817;SDS011;22761;51.542;16.450;2024-01-11T00:53:51;135.20;;;57.80;;
36817;SDS011;22761;51.542;16.450;2024-01-11T00:56:20;148.30;;;62.70;;
36817;SDS011;22761;51.542;16.450;2024-01-11T00:58:49;143.70;;;62.90;;
36817;SDS011;22761;51.542;16.450;2024-01-11T01:01:17;150.70;;;63.50;;
36817;SDS011;22761;51.542;16.450;2024-01-11T01:03:45;154.60;;;63.00;;
36817;SDS011;22761;51.542;16.450;2024-01-11T01:06:13;162.30;;;68.30;;
36817;SDS011;22761;51.542;16.450;2024-01-11T01:08:42;163.10;;;67.60;;
36817;SDS011;22761;51.542;16.450;2024-01-11T01:11:10;165.80;;;65.10;;
36817;SDS011;22761;51.542;16.450;2024-01-11T01:13:38;157.60;;;64.90;;
36817;SDS011;22761;51.542;16.450;2024-01-11T01:16:06;151.50;;;60.70;;
36817;SDS011;22761;51.542;16.450;2024-01-11T01:18:34;146.70;;;63.50;;
36817;SDS011;22761;51.542;16.450;2024-01-11T01:21:03;156.60;;;62.80;;
36817;SDS011;22761;51.542;16.450;2024-01-11T01:23:34;138.90;;;59.40;;
36817;SDS011;22761;51.542;16.450;2024-01-11T01:26:03;144.30;;;59.00;;
36817;SDS011;22761;51.542;16.450;2024-01-11T01:28:34;143.60;;;59.30;;
36817;SDS011;22761;51.542;16.450;2024-01-11T01:31:02;135.30;;;56.70;;
36817;SDS011;22761;51.542;16.450;2024-01-11T01:33:30;135.90;;;58.00;;
36817;SDS011;22761;51.542;16.450;2024-01-11T01:35:59;144.40;;;59.30;;
36817;SDS011;22761;51.542;16.450;2024-01-11T01:38:27;151.00;;;60.20;;
36817;SDS011;22761;51.542;16.450;2024-01-11T01:40:55;128.40;;;54.30;;
36817;SDS011;22761;51.542;16.450;2024-01-11T01:43:23;144.00;;;59.00;;
36817;SDS011;22761;51.542;16.450;2024-01-11T01:45:52;123.00;;;54.40;;
36817;SDS011;22761;51.542;16.450;2024-01-11T01:48:20;134.00;;;54.10;;
36817;SDS011;22761;51.542;16.450;2024-01-11T01:50:49;130.00;;;57.50;;
36817;SDS011;22761;51.542;16.450;2024-01-11T01:53:21;118.40;;;51.60;;
36817;SDS011;22761;51.542;16.450;2024-01-11T01:55:50;123.70;;;53.70;;
36817;SDS011;22761;51.542;16.450;2024-01-11T01:58:19;124.60;;;53.10;;
36817;SDS011;22761;51.542;16.450;2024-01-11T02:00:48;136.30;;;58.90;;
36817;SDS011;22761;51.542;16.450;2024-01-11T02:03:19;128.00;;;54.00;;
36817;SDS011;22761;51.542;16.450;2024-01-11T02:05:47;130.30;;;54.50;;
36817;SDS011;22761;51.542;16.450;2024-01-11T02:08:16;134.50;;;55.70;;
36817;SDS011;22761;51.542;16.450;2024-01-11T02:10:47;121.20;;;52.50;;
36817;SDS011;22761;51.542;16.450;2024-01-11T02:13:15;120.90;;;52.70;;
36817;SDS011;22761;51.542;16.450;2024-01-11T02:15:44;125.10;;;54.80;;
36817;SDS011;22761;51.542;16.450;2024-01-11T02:18:13;136.30;;;55.20;;
36817;SDS011;22761;51.542;16.450;2024-01-11T02:20:41;123.50;;;52.20;;
36817;SDS011;22761;51.542;16.450;2024-01-11T02:23:17;134.30;;;55.90;;
36817;SDS011;22761;51.542;16.450;2024-01-11T02:25:46;147.20;;;58.40;;
36817;SDS011;22761;51.542;16.450;2024-01-11T02:28:14;152.30;;;59.70;;
36817;SDS011;22761;51.542;16.450;2024-01-11T02:30:42;140.90;;;58.70;;
36817;SDS011;22761;51.542;16.450;2024-01-11T02:33:11;144.40;;;59.40;;
36817;SDS011;22761;51.542;16.450;2024-01-11T02:35:44;146.10;;;58.20;;
36817;SDS011;22761;51.542;16.450;2024-01-11T02:38:15;142.60;;;57.90;;
36817;SDS011;22761;51.542;16.450;2024-01-11T02:40:44;143.10;;;55.10;;
36817;SDS011;22761;51.542;16.450;2024-01-11T02:43:12;129.80;;;51.30;;
36817;SDS011;22761;51.542;16.450;2024-01-11T02:45:41;116.20;;;49.10;;
36817;SDS011;22761;51.542;16.450;2024-01-11T02:48:09;127.70;;;53.20;;
36817;SDS011;22761;51.542;16.450;2024-01-11T02:50:37;121.20;;;50.00;;
36817;SDS011;22761;51.542;16.450;2024-01-11T02:53:06;129.20;;;51.60;;
36817;SDS011;22761;51.542;16.450;2024-01-11T02:55:34;125.10;;;51.40;;
36817;SDS011;22761;51.542;16.450;2024-01-11T02:58:02;123.90;;;51.20;;
36817;SDS011;22761;51.542;16.450;2024-01-11T03:00:30;133.70;;;54.00;;
36817;SDS011;22761;51.542;16.450;2024-01-11T03:02:58;121.00;;;51.10;;
36817;SDS011;22761;51.542;16.450;2024-01-11T03:05:27;133.20;;;54.40;;
36817;SDS011;22761;51.542;16.450;2024-01-11T03:07:55;139.70;;;57.50;;
36817;SDS011;22761;51.542;16.450;2024-01-11T03:10:23;134.20;;;54.60;;
36817;SDS011;22761;51.542;16.450;2024-01-11T03:12:51;137.90;;;55.10;;
36817;SDS011;22761;51.542;16.450;2024-01-11T03:15:19;150.70;;;57.90;;
36817;SDS011;22761;51.542;16.450;2024-01-11T03:17:48;131.40;;;57.00;;
36817;SDS011;22761;51.542;16.450;2024-01-11T03:20:16;136.50;;;55.90;;
36817;SDS011;22761;51.542;16.450;2024-01-11T03:22:48;134.20;;;58.30;;
36817;SDS011;22761;51.542;16.450;2024-01-11T03:25:16;132.70;;;55.60;;
36817;SDS011;22761;51.542;16.450;2024-01-11T03:27:44;135.30;;;56.80;;
36817;SDS011;22761;51.542;16.450;2024-01-11T03:30:12;126.90;;;56.40;;
36817;SDS011;22761;51.542;16.450;2024-01-11T03:32:41;133.10;;;56.00;;
36817;SDS011;22761;51.542;16.450;2024-01-11T03:35:09;126.80;;;55.60;;
36817;SDS011;22761;51.542;16.450;2024-01-11T03:37:38;124.60;;;52.50;;
36817;SDS011;22761;51.542;16.450;2024-01-11T03:40:06;132.00;;;56.50;;
36817;SDS011;22761;51.542;16.450;2024-01-11T03:42:35;124.70;;;54.90;;
36817;SDS011;22761;51.542;16.450;2024-01-11T03:45:03;140.10;;;58.00;;
36817;SDS011;22761;51.542;16.450;2024-01-11T03:47:32;150.70;;;61.30;;
36817;SDS011;22761;51.542;16.450;2024-01-11T03:50:01;165.80;;;63.00;;
36817;SDS011;22761;51.542;16.450;2024-01-11T03:52:29;144.20;;;63.80;;
36817;SDS011;22761;51.542;16.450;2024-01-11T03:54:58;140.40;;;57.70;;
36817;SDS011;22761;51.542;16.450;2024-01-11T03:57:26;146.60;;;58.80;;
36817;SDS011;22761;51.542;16.450;2024-01-11T03:59:54;135.00;;;56.10;;
36817;SDS011;22761;51.542;16.450;2024-01-11T04:02:22;136.20;;;58.20;;
36817;SDS011;22761;51.542;16.450;2024-01-11T04:04:50;131.40;;;55.60;;
36817;SDS011;22761;51.542;16.450;2024-01-11T04:07:19;139.50;;;57.20;;
36817;SDS011;22761;51.542;16.450;2024-01-11T04:09:47;151.30;;;63.90;;
36817;SDS011;22761;51.542;16.450;2024-01-11T04:12:15;141.40;;;58.70;;
36817;SDS011;22761;51.542;16.450;2024-01-11T04:14:43;146.90;;;64.00;;
36817;SDS011;22761;51.542;16.450;2024-01-11T04:17:11;153.20;;;60.70;;
36817;SDS011;22761;51.542;16.450;2024-01-11T04:19:40;138.30;;;59.30;;
36817;SDS011;22761;51.542;16.450;2024-01-11T04:22:08;169.80;;;67.30;;
36817;SDS011;22761;51.542;16.450;2024-01-11T04:24:36;176.50;;;70.10;;
36817;SDS011;22761;51.542;16.450;2024-01-11T04:27:05;154.70;;;65.20;;
36817;SDS011;22761;51.542;16.450;2024-01-11T04:29:33;160.40;;;64.70;;
36817;SDS011;22761;51.542;16.450;2024-01-11T04:32:01;165.30;;;66.90;;
36817;SDS011;22761;51.542;16.450;2024-01-11T04:34:30;166.10;;;68.40;;
36817;SDS011;22761;51.542;16.450;2024-01-11T04:36:59;148.60;;;63.20;;
36817;SDS011;22761;51.542;16.450;2024-01-11T04:39:27;162.80;;;68.30;;
36817;SDS011;22761;51.542;16.450;2024-01-11T04:41:55;160.50;;;67.50;;
36817;SDS011;22761;51.542;16.450;2024-01-11T04:44:23;159.60;;;66.20;;
36817;SDS011;22761;51.542;16.450;2024-01-11T04:46:54;168.90;;;67.90;;
36817;SDS011;22761;51.542;16.450;2024-01-11T04:49:23;153.20;;;67.20;;
36817;SDS011;22761;51.542;16.450;2024-01-11T04:51:51;164.10;;;70.20;;
36817;SDS011;22761;51.542;16.450;2024-01-11T04:54:19;160.60;;;71.20;;
36817;SDS011;22761;51.542;16.450;2024-01-11T04:56:47;179.80;;;71.90;;
36817;SDS011;22761;51.542;16.450;2024-01-11T04:59:16;162.70;;;71.40;;
36817;SDS011;22761;51.542;16.450;2024-01-11T05:01:45;152.40;;;69.40;;
36817;SDS011;22761;51.542;16.450;2024-01-11T05:04:14;141.70;;;67.00;;
36817;SDS011;22761;51.542;16.450;2024-01-11T05:06:42;147.60;;;65.50;;
36817;SDS011;22761;51.542;16.450;2024-01-11T05:09:10;143.10;;;65.40;;
36817;SDS011;22761;51.542;16.450;2024-01-11T05:11:38;125.80;;;57.50;;
36817;SDS011;22761;51.542;16.450;2024-01-11T05:14:07;120.70;;;54.30;;
36817;SDS011;22761;51.542;16.450;2024-01-11T05:16:35;123.00;;;54.80;;
36817;SDS011;22761;51.542;16.450;2024-01-11T05:19:03;121.40;;;55.40;;
36817;SDS011;22761;51.542;16.450;2024-01-11T05:21:32;129.60;;;55.80;;
36817;SDS011;22761;51.542;16.450;2024-01-11T05:24:00;126.10;;;56.10;;
36817;SDS011;22761;51.542;16.450;2024-01-11T05:26:29;92.60;;;41.70;;
36817;SDS011;22761;51.542;16.450;2024-01-11T05:28:57;90.40;;;41.40;;
36817;SDS011;22761;51.542;16.450;2024-01-11T05:31:26;90.00;;;39.80;;
36817;SDS011;22761;51.542;16.450;2024-01-11T05:33:54;92.00;;;41.60;;
36817;SDS011;22761;51.542;16.450;2024-01-11T05:36:23;100.70;;;45.10;;
36817;SDS011;22761;51.542;16.450;2024-01-11T05:38:51;89.70;;;40.90;;
36817;SDS011;22761;51.542;16.450;2024-01-11T05:41:19;83.00;;;34.70;;
36817;SDS011;22761;51.542;16.450;2024-01-11T05:43:47;86.70;;;36.90;;
36817;SDS011;22761;51.542;16.450;2024-01-11T05:46:15;87.10;;;37.50;;
36817;SDS011;22761;51.542;16.450;2024-01-11T05:48:44;93.50;;;37.70;;
36817;SDS011;22761;51.542;16.450;2024-01-11T05:51:12;94.80;;;42.00;;
36817;SDS011;22761;51.542;16.450;2024-01-11T05:53:40;98.40;;;39.50;;
36817;SDS011;22761;51.542;16.450;2024-01-11T05:56:09;99.10;;;41.50;;
36817;SDS011;22761;51.542;16.450;2024-01-11T05:58:39;98.80;;;41.10;;
36817;SDS011;22761;51.542;16.450;2024-01-11T06:01:08;103.70;;;44.80;;
36817;SDS011;22761;51.542;16.450;2024-01-11T06:03:37;115.50;;;49.70;;
36817;SDS011;22761;51.542;16.450;2024-01-11T06:06:06;102.20;;;44.80;;
36817;SDS011;22761;51.542;16.450;2024-01-11T06:08:35;97.60;;;42.80;;
36817;SDS011;22761;51.542;16.450;2024-01-11T06:11:03;97.20;;;43.00;;
36817;SDS011;22761;51.542;16.450;2024-01-11T06:13:32;105.90;;;46.00;;
36817;SDS011;22761;51.542;16.450;2024-01-11T06:16:01;99.60;;;43.70;;
36817;SDS011;22761;51.542;16.450;2024-01-11T06:18:29;99.80;;;42.10;;
36817;SDS011;22761;51.542;16.450;2024-01-11T06:20:58;102.70;;;39.90;;
36817;SDS011;22761;51.542;16.450;2024-01-11T06:23:26;94.70;;;40.40;;
36817;SDS011;22761;51.542;16.450;2024-01-11T06:25:55;96.50;;;41.00;;
36817;SDS011;22761;51.542;16.450;2024-01-11T06:28:23;94.40;;;41.40;;
36817;SDS011;22761;51.542;16.450;2024-01-11T06:30:52;83.60;;;39.20;;
36817;SDS011;22761;51.542;16.450;2024-01-11T06:33:21;86.20;;;37.70;;
36817;SDS011;22761;51.542;16.450;2024-01-11T06:35:50;74.70;;;33.10;;
36817;SDS011;22761;51.542;16.450;2024-01-11T06:38:18;93.90;;;41.30;;
36817;SDS011;22761;51.542;16.450;2024-01-11T06:40:47;68.70;;;31.70;;
36817;SDS011;22761;51.542;16.450;2024-01-11T06:43:16;71.70;;;33.50;;
36817;SDS011;22761;51.542;16.450;2024-01-11T06:45:44;77.70;;;33.50;;
36817;SDS011;22761;51.542;16.450;2024-01-11T06:48:12;92.70;;;39.40;;
36817;SDS011;22761;51.542;16.450;2024-01-11T06:50:41;95.70;;;36.00;;
36817;SDS011;22761;51.542;16.450;2024-01-11T06:53:09;80.40;;;32.00;;
36817;SDS011;22761;51.542;16.450;2024-01-11T06:55:38;73.90;;;32.00;;
36817;SDS011;22761;51.542;16.450;2024-01-11T06:58:06;83.20;;;38.20;;
36817;SDS011;22761;51.542;16.450;2024-01-11T07:00:34;99.50;;;40.00;;
36817;SDS011;22761;51.542;16.450;2024-01-11T07:03:03;82.70;;;35.20;;
36817;SDS011;22761;51.542;16.450;2024-01-11T07:05:31;86.80;;;37.30;;
36817;SDS011;22761;51.542;16.450;2024-01-11T07:08:00;112.10;;;45.70;;
36817;SDS011;22761;51.542;16.450;2024-01-11T07:10:28;89.80;;;38.60;;
36817;SDS011;22761;51.542;16.450;2024-01-11T07:12:56;95.50;;;36.50;;
36817;SDS011;22761;51.542;16.450;2024-01-11T07:15:24;92.10;;;34.90;;
36817;SDS011;22761;51.542;16.450;2024-01-11T07:17:52;106.50;;;40.80;;
36817;SDS011;22761;51.542;16.450;2024-01-11T07:20:21;80.90;;;33.40;;
36817;SDS011;22761;51.542;16.450;2024-01-11T07:22:49;86.20;;;35.50;;
36817;SDS011;22761;51.542;16.450;2024-01-11T07:25:18;78.10;;;33.60;;
36817;SDS011;22761;51.542;16.450;2024-01-11T07:27:46;77.20;;;33.00;;
36817;SDS011;22761;51.542;16.450;2024-01-11T07:30:14;81.40;;;34.80;;
36817;SDS011;22761;51.542;16.450;2024-01-11T07:32:43;68.70;;;30.50;;
36817;SDS011;22761;51.542;16.450;2024-01-11T07:35:11;65.70;;;30.90;;
36817;SDS011;22761;51.542;16.450;2024-01-11T07:37:45;67.40;;;30.60;;
36817;SDS011;22761;51.542;16.450;2024-01-11T07:40:13;73.60;;;31.50;;
36817;SDS011;22761;51.542;16.450;2024-01-11T07:42:42;73.40;;;31.60;;
36817;SDS011;22761;51.542;16.450;2024-01-11T07:45:11;69.30;;;29.80;;
36817;SDS011;22761;51.542;16.450;2024-01-11T07:47:39;72.70;;;32.20;;
36817;SDS011;22761;51.542;16.450;2024-01-11T07:50:08;70.10;;;32.00;;
36817;SDS011;22761;51.542;16.450;2024-01-11T07:52:43;75.40;;;34.60;;
36817;SDS011;22761;51.542;16.450;2024-01-11T07:55:11;73.80;;;34.60;;
36817;SDS011;22761;51.542;16.450;2024-01-11T07:57:41;80.70;;;35.90;;
36817;SDS011;22761;51.542;16.450;2024-01-11T08:00:09;75.50;;;32.30;;
36817;SDS011;22761;51.542;16.450;2024-01-11T08:02:40;78.20;;;36.90;;
36817;SDS011;22761;51.542;16.450;2024-01-11T08:05:09;73.80;;;34.30;;
36817;SDS011;22761;51.542;16.450;2024-01-11T08:07:38;78.30;;;34.00;;
36817;SDS011;22761;51.542;16.450;2024-01-11T08:10:06;85.40;;;37.60;;
36817;SDS011;22761;51.542;16.450;2024-01-11T08:12:35;72.60;;;33.00;;
36817;SDS011;22761;51.542;16.450;2024-01-11T08:15:04;75.20;;;34.60;;
36817;SDS011;22761;51.542;16.450;2024-01-11T08:17:33;72.90;;;32.30;;
36817;SDS011;22761;51.542;16.450;2024-01-11T08:20:01;73.40;;;34.00;;
36817;SDS011;22761;51.542;16.450;2024-01-11T08:22:29;78.70;;;36.00;;
36817;SDS011;22761;51.542;16.450;2024-01-11T08:25:02;76.80;;;35.40;;
36817;SDS011;22761;51.542;16.450;2024-01-11T08:27:32;77.80;;;35.20;;
36817;SDS011;22761;51.542;16.450;2024-01-11T08:30:01;82.00;;;37.50;;
36817;SDS011;22761;51.542;16.450;2024-01-11T08:32:30;72.30;;;34.80;;
36817;SDS011;22761;51.542;16.450;2024-01-11T08:34:59;77.70;;;35.20;;
36817;SDS011;22761;51.542;16.450;2024-01-11T08:37:28;74.50;;;33.40;;
36817;SDS011;22761;51.542;16.450;2024-01-11T08:39:56;70.00;;;34.30;;
36817;SDS011;22761;51.542;16.450;2024-01-11T08:42:24;78.20;;;35.60;;
36817;SDS011;22761;51.542;16.450;2024-01-11T08:44:52;76.80;;;34.80;;
36817;SDS011;22761;51.542;16.450;2024-01-11T08:47:20;74.50;;;33.90;;
36817;SDS011;22761;51.542;16.450;2024-01-11T08:49:49;72.30;;;32.30;;
36817;SDS011;22761;51.542;16.450;2024-01-11T08:52:17;71.30;;;33.20;;
36817;SDS011;22761;51.542;16.450;2024-01-11T08:54:46;66.00;;;31.10;;
36817;SDS011;22761;51.542;16.450;2024-01-11T08:57:14;73.80;;;31.20;;
36817;SDS011;22761;51.542;16.450;2024-01-11T08:59:42;71.40;;;33.50;;
36817;SDS011;22761;51.542;16.450;2024-01-11T09:02:11;75.40;;;32.30;;
36817;SDS011;22761;51.542;16.450;2024-01-11T09:04:46;74.20;;;32.60;;
36817;SDS011;22761;51.542;16.450;2024-01-11T09:07:15;73.90;;;34.20;;
36817;SDS011;22761;51.542;16.450;2024-01-11T09:09:44;75.90;;;34.80;;
36817;SDS011;22761;51.542;16.450;2024-01-11T09:12:23;73.10;;;33.60;;
36817;SDS011;22761;51.542;16.450;2024-01-11T09:14:51;72.90;;;32.60;;
36817;SDS011;22761;51.542;16.450;2024-01-11T09:17:20;80.70;;;34.90;;
36817;SDS011;22761;51.542;16.450;2024-01-11T09:19:50;76.00;;;34.80;;
36817;SDS011;22761;51.542;16.450;2024-01-11T09:22:18;71.70;;;33.80;;
36817;SDS011;22761;51.542;16.450;2024-01-11T09:24:47;73.90;;;35.00;;
36817;SDS011;22761;51.542;16.450;2024-01-11T09:27:15;78.00;;;34.80;;
36817;SDS011;22761;51.542;16.450;2024-01-11T09:29:43;83.20;;;36.80;;
36817;SDS011;22761;51.542;16.450;2024-01-11T09:32:12;84.60;;;36.60;;
36817;SDS011;22761;51.542;16.450;2024-01-11T09:34:41;78.40;;;36.10;;
36817;SDS011;22761;51.542;16.450;2024-01-11T09:37:09;76.10;;;36.60;;
36817;SDS011;22761;51.542;16.450;2024-01-11T09:39:37;75.10;;;36.00;;
36817;SDS011;22761;51.542;16.450;2024-01-11T09:42:06;78.10;;;35.70;;
36817;SDS011;22761;51.542;16.450;2024-01-11T09:44:38;78.00;;;35.90;;
36817;SDS011;22761;51.542;16.450;2024-01-11T09:47:08;78.70;;;38.10;;
36817;SDS011;22761;51.542;16.450;2024-01-11T09:49:40;70.30;;;32.90;;
36817;SDS011;22761;51.542;16.450;2024-01-11T09:52:11;77.20;;;35.20;;
36817;SDS011;22761;51.542;16.450;2024-01-11T09:54:40;74.30;;;35.80;;
36817;SDS011;22761;51.542;16.450;2024-01-11T09:57:09;76.40;;;33.80;;
36817;SDS011;22761;51.542;16.450;2024-01-11T09:59:37;79.50;;;37.90;;
36817;SDS011;22761;51.542;16.450;2024-01-11T10:02:06;80.40;;;37.70;;
36817;SDS011;22761;51.542;16.450;2024-01-11T10:04:37;73.70;;;34.50;;
36817;SDS011;22761;51.542;16.450;2024-01-11T10:07:05;81.00;;;36.50;;
36817;SDS011;22761;51.542;16.450;2024-01-11T10:09:34;77.70;;;34.30;;
36817;SDS011;22761;51.542;16.450;2024-01-11T10:12:04;78.20;;;35.50;;
36817;SDS011;22761;51.542;16.450;2024-01-11T10:14:33;76.70;;;33.60;;
36817;SDS011;22761;51.542;16.450;2024-01-11T10:17:01;74.70;;;36.70;;
36817;SDS011;22761;51.542;16.450;2024-01-11T10:19:29;78.60;;;35.60;;
36817;SDS011;22761;51.542;16.450;2024-01-11T10:21:58;76.40;;;35.90;;
36817;SDS011;22761;51.542;16.450;2024-01-11T10:24:27;76.40;;;34.50;;
36817;SDS011;22761;51.542;16.450;2024-01-11T10:26:56;76.30;;;36.40;;
36817;SDS011;22761;51.542;16.450;2024-01-11T10:29:27;83.60;;;36.30;;
36817;SDS011;22761;51.542;16.450;2024-01-11T10:31:58;75.10;;;35.70;;
36817;SDS011;22761;51.542;16.450;2024-01-11T10:34:27;73.60;;;35.20;;
36817;SDS011;22761;51.542;16.450;2024-01-11T10:36:56;72.60;;;35.60;;
36817;SDS011;22761;51.542;16.450;2024-01-11T10:39:25;74.80;;;35.90;;
36817;SDS011;22761;51.542;16.450;2024-01-11T10:41:58;71.50;;;35.50;;
36817;SDS011;22761;51.542;16.450;2024-01-11T10:44:34;80.50;;;36.50;;
36817;SDS011;22761;51.542;16.450;2024-01-11T10:47:04;79.10;;;37.30;;
36817;SDS011;22761;51.542;16.450;2024-01-11T10:49:37;79.50;;;38.30;;
36817;SDS011;22761;51.542;16.450;2024-01-11T10:52:07;75.70;;;34.90;;
36817;SDS011;22761;51.542;16.450;2024-01-11T10:54:36;79.80;;;36.70;;
36817;SDS011;22761;51.542;16.450;2024-01-11T10:57:04;73.40;;;34.80;;
36817;SDS011;22761;51.542;16.450;2024-01-11T10:59:34;65.40;;;33.90;;
36817;SDS011;22761;51.542;16.450;2024-01-11T11:02:04;77.30;;;38.70;;
36817;SDS011;22761;51.542;16.450;2024-01-11T11:04:34;85.10;;;38.50;;
36817;SDS011;22761;51.542;16.450;2024-01-11T11:07:04;76.50;;;37.20;;
36817;SDS011;22761;51.542;16.450;2024-01-11T11:09:35;73.00;;;37.70;;
36817;SDS011;22761;51.542;16.450;2024-01-11T11:12:05;76.20;;;36.10;;
36817;SDS011;22761;51.542;16.450;2024-01-11T11:14:34;74.00;;;33.50;;
36817;SDS011;22761;51.542;16.450;2024-01-11T11:17:03;70.40;;;34.50;;
36817;SDS011;22761;51.542;16.450;2024-01-11T11:19:32;66.40;;;34.90;;
36817;SDS011;22761;51.542;16.450;2024-01-11T11:22:03;65.70;;;35.10;;
36817;SDS011;22761;51.542;16.450;2024-01-11T11:24:35;64.30;;;31.70;;
36817;SDS011;22761;51.542;16.450;2024-01-11T11:27:05;63.50;;;30.90;;
36817;SDS011;22761;51.542;16.450;2024-01-11T11:29:33;62.80;;;31.30;;
36817;SDS011;22761;51.542;16.450;2024-01-11T11:32:02;59.90;;;29.40;;
36817;SDS011;22761;51.542;16.450;2024-01-11T11:34:41;67.30;;;32.30;;
36817;SDS011;22761;51.542;16.450;2024-01-11T11:37:21;68.80;;;30.60;;
36817;SDS011;22761;51.542;16.450;2024-01-11T11:39:51;57.70;;;30.50;;
36817;SDS011;22761;51.542;16.450;2024-01-11T11:42:23;63.00;;;30.20;;
36817;SDS011;22761;51.542;16.450;2024-01-11T11:44:52;61.50;;;30.00;;
36817;SDS011;22761;51.542;16.450;2024-01-11T11:47:21;62.10;;;30.00;;
36817;SDS011;22761;51.542;16.450;2024-01-11T11:49:58;54.10;;;27.30;;
36817;SDS011;22761;51.542;16.450;2024-01-11T11:52:34;57.20;;;28.90;;
36817;SDS011;22761;51.542;16.450;2024-01-11T11:55:07;56.90;;;27.00;;
36817;SDS011;22761;51.542;16.450;2024-01-11T11:57:36;46.80;;;24.70;;
36817;SDS011;22761;51.542;16.450;2024-01-11T12:00:05;55.30;;;28.20;;
36817;SDS011;22761;51.542;16.450;2024-01-11T12:02:40;40.70;;;21.00;;
36817;SDS011;22761;51.542;16.450;2024-01-11T12:05:09;43.50;;;22.00;;
36817;SDS011;22761;51.542;16.450;2024-01-11T12:07:38;38.10;;;20.10;;
36817;SDS011;22761;51.542;16.450;2024-01-11T12:10:06;40.90;;;20.00;;
36817;SDS011;22761;51.542;16.450;2024-01-11T12:12:35;37.00;;;18.70;;
36817;SDS011;22761;51.542;16.450;2024-01-11T12:15:05;33.70;;;18.50;;
36817;SDS011;22761;51.542;16.450;2024-01-11T12:17:34;35.90;;;18.90;;
36817;SDS011;22761;51.542;16.450;2024-01-11T12:20:02;38.90;;;19.10;;
36817;SDS011;22761;51.542;16.450;2024-01-11T12:22:31;40.40;;;19.70;;
36817;SDS011;22761;51.542;16.450;2024-01-11T12:24:59;31.40;;;17.60;;
36817;SDS011;22761;51.542;16.450;2024-01-11T12:27:29;32.10;;;17.80;;
36817;SDS011;22761;51.542;16.450;2024-01-11T12:29:58;29.70;;;16.20;;
36817;SDS011;22761;51.542;16.450;2024-01-11T12:32:27;36.30;;;19.20;;
36817;SDS011;22761;51.542;16.450;2024-01-11T12:34:57;34.60;;;18.10;;
36817;SDS011;22761;51.542;16.450;2024-01-11T12:37:26;30.50;;;16.20;;
36817;SDS011;22761;51.542;16.450;2024-01-11T12:39:57;36.10;;;19.00;;
36817;SDS011;22761;51.542;16.450;2024-01-11T12:42:29;42.20;;;19.80;;
36817;SDS011;22761;51.542;16.450;2024-01-11T12:44:57;35.40;;;19.20;;
36817;SDS011;22761;51.542;16.450;2024-01-11T12:47:26;46.70;;;21.50;;
36817;SDS011;22761;51.542;16.450;2024-01-11T12:49:55;36.70;;;19.70;;
36817;SDS011;22761;51.542;16.450;2024-01-11T12:52:24;32.70;;;17.40;;
36817;SDS011;22761;51.542;16.450;2024-01-11T12:54:55;38.60;;;18.10;;
36817;SDS011;22761;51.542;16.450;2024-01-11T12:57:24;30.90;;;17.10;;
36817;SDS011;22761;51.542;16.450;2024-01-11T12:59:53;34.60;;;16.90;;
36817;SDS011;22761;51.542;16.450;2024-01-11T13:02:21;34.60;;;18.40;;
36817;SDS011;22761;51.542;16.450;2024-01-11T13:04:50;30.80;;;16.40;;
36817;SDS011;22761;51.542;16.450;2024-01-11T13:07:18;29.70;;;16.30;;
36817;SDS011;22761;51.542;16.450;2024-01-11T13:09:47;29.90;;;15.70;;
36817;SDS011;22761;51.542;16.450;2024-01-11T13:12:15;30.40;;;15.60;;
36817;SDS011;22761;51.542;16.450;2024-01-11T13:14:43;30.10;;;15.20;;
36817;SDS011;22761;51.542;16.450;2024-01-11T13:17:11;35.40;;;17.30;;
36817;SDS011;22761;51.542;16.450;2024-01-11T13:19:40;29.50;;;15.00;;
36817;SDS011;22761;51.542;16.450;2024-01-11T13:22:08;29.30;;;14.90;;
36817;SDS011;22761;51.542;16.450;2024-01-11T13:24:36;30.40;;;14.20;;
36817;SDS011;22761;51.542;16.450;2024-01-11T13:27:04;29.50;;;14.80;;
36817;SDS011;22761;51.542;16.450;2024-01-11T13:29:33;28.80;;;14.40;;
36817;SDS011;22761;51.542;16.450;2024-01-11T13:32:01;27.40;;;13.80;;
36817;SDS011;22761;51.542;16.450;2024-01-11T13:34:32;27.00;;;14.30;;
36817;SDS011;22761;51.542;16.450;2024-01-11T13:37:00;27.30;;;14.40;;
36817;SDS011;22761;51.542;16.450;2024-01-11T13:39:28;29.70;;;14.50;;
36817;SDS011;22761;51.542;16.450;2024-01-11T13:41:57;29.20;;;13.80;;
36817;SDS011;22761;51.542;16.450;2024-01-11T13:44:26;27.30;;;14.70;;
36817;SDS011;22761;51.542;16.450;2024-01-11T13:46:54;29.80;;;14.40;;
36817;SDS011;22761;51.542;16.450;2024-01-11T13:49:22;31.00;;;15.90;;
36817;SDS011;22761;51.542;16.450;2024-01-11T13:51:53;29.50;;;15.10;;
36817;SDS011;22761;51.542;16.450;2024-01-11T13:54:28;30.30;;;15.60;;
36817;SDS011;22761;51.542;16.450;2024-01-11T13:56:56;26.20;;;14.50;;
36817;SDS011;22761;51.542;16.450;2024-01-11T13:59:25;32.90;;;17.60;;
36817;SDS011;22761;51.542;16.450;2024-01-11T14:01:54;33.80;;;18.00;;
36817;SDS011;22761;51.542;16.450;2024-01-11T14:04:22;35.00;;;18.10;;
36817;SDS011;22761;51.542;16.450;2024-01-11T14:06:51;29.50;;;15.60;;
36817;SDS011;22761;51.542;16.450;2024-01-11T14:09:20;31.70;;;16.30;;
36817;SDS011;22761;51.542;16.450;2024-01-11T14:11:50;32.20;;;15.40;;
36817;SDS011;22761;51.542;16.450;2024-01-11T14:14:18;32.00;;;14.80;;